Terminal Aerodrome Forecast
Issued by NWS

Home | Current Version | Previous Version | Text Only | Print | Product List | Glossary On
Versions: 1 2 3 4 5 6 7 8 9 10 11 12
000
FTAK31 PAFA 291730
TAFAMC
TAF
PAMC 291730Z 2918/3018 VRB04KT P6SM -SN BKN035 OVC050
     FM300600 VRB04KT P6SM BKN035 OVC050=

USA.gov is the U.S. government's official web portal to all federal, state and local government web resources and services.